Airfield :
LOGIN :

Register | Disclaimer

   EN    FR    IT 

 










Legend :    VFR   Marginal VFR   IFR   Intensive IFR   Very Intensive IFR
Visi :
Ceiling :
>= 8 km
>= 3000ft
5 to 8 km
1000 to 3000 ft
1500m to 5 km
500 to 1000 ft
800 to 1500m
200 to 500 ft
< 800m
< 200 ft
Symbols :   Thunderstorms  Fog  Heavy snow  Heavy precipitations  Wind > 20 kt
SIGMETs :     Misc.  Thunderstorms  Icing  Turbulence  Mountain Waves  Volcanic Ashes







- Airport Elevation : 357 ft
- IATA code : TUF
- Download approach charts


LFOT - Tours

CURRENT METAR :
  • 190600Z AUTO 29003KT 2400 BR BKN003 BKN014 BKN034 07/07 Q1021 TEMPO 3000 BR

EXPIRED METARs :
  • 190530Z AUTO VRB03KT 2500 BR FEW002 BKN016 BKN033 07/07 Q1021 TEMPO 3000 BR BKN004
  • 190500Z AUTO 28002KT 2700 BR SCT032 BKN045 BKN052 07/07 Q1021 TEMPO 4000 BR BKN004
  • 190430Z AUTO 00000KT 2900 -RA BR NSC 07/07 Q1021 TEMPO 4000 BR BKN004
  • 190400Z AUTO 19002KT 3200 -DZ BR BKN043 BKN049 OVC062 07/07 Q1021 TEMPO BKN004
  • 190330Z AUTO VRB02KT 2900 -DZ BR OVC047 07/07 Q1021 TEMPO 4000 BR BKN004

TAF TAF LFOT
Valid from the 19 at 06:00 until the 20 at 06:00 UTC


190500Z 1906/2006 VRB02KT 9999 BKN025
TEMPO 1906/1911 3000 BR BKN004
BECMG 1915/1918 08003KT SCT030
TEMPO 1921/2006 3000 BR
PROB30
TEMPO 2003/2006 0800 FG BKN002
No reported NOTAMs for that airfield.
1 SIGMET reported for the Paris FIR (LFFF) :
 
Severe turbulence
LFFF SIGMET 1 VALID 190410/190800 LFPW
LFFF PARIS FIR/UIR SEV TURB FCST WI N4730 W00015 - N4830 W00015 - N5030 E00215 - N4930 E00245 - N4730 W00015 FL180/280 MOV SE 10KT NC=



MET'MAP, your aeronautical weather chart ! - Copyright ORBIFLY December 2007 - Disclaimer

ORBIFLY MET'MAP TEAM :

Programming & Development : Alexandra Zaïnal
Concept & Development : Baudouin d'Aumeries
Co-Development & Prog : Marc-Olivier Méhu
Technical & hardware support : Manuel Goepfert

Contact : metmap@orbifly.com




SOURCES & CREDITS :

   NOAA